Flight Track Log - Related Links

Times and Time Zones

All times are in EDT time to prevent confusion due to time zone crossing. See the N52712 flight status page for this flight to view local times or setup timezone preferences in your user account.

Time Position Orientation Groundspeed Altitude Reporting Facility
EDT Latitude Longitude Course Direction KTS MPH feet Rate Location/Type
Fri 12:09:07 42.4667 -71.2833 30° Northeast 35 40 800  Level KA90
Fri 12:09:43 42.4667 -71.2667 90° East 64 74 1,400 941 Climbing KA90
Fri 12:10:49 42.5000 -71.2500 20° North 71 82 2,400 810 Climbing KA90
Fri 12:11:49 42.5167 -71.2333 36° Northeast 71 82 3,100 677 Climbing KA90
Fri 12:13:02 42.5333 -71.2167 36° Northeast 71 82 3,900 694 Climbing KA90
Fri 12:13:50 42.5500 -71.2000 36° Northeast 74 85 4,500 611 Climbing KA90
Fri 12:14:50 42.5667 -71.1833 36° Northeast 86 99 5,000 350 Climbing KA90
Fri 12:15:00 42.6233 -71.1615 30° Northeast  Level FlightAware
Fri 12:15:50 42.6000 -71.1667 20° North 121 139 5,200  Level KA90
Fri 12:16:50 42.6167 -71.1333 56° Northeast 128 147 5,100 -100 Descending KA90
Fri 12:17:50 42.6500 -71.1167 20° North 113 130 5,000 -50 Descending KA90
Fri 12:18:50 42.6833 -71.1000 20° North 116 133 5,000 100 Level KA90
Fri 12:19:50 42.7000 -71.0667 56° Northeast 118 136 5,200 100 Climbing KA90
Fri 12:20:50 42.7333 -71.0500 20° North 125 144 5,200  Level KA90
Fri 12:21:50 42.7667 -71.0333 20° North 123 142 5,200 -50 Level KA90
Fri 12:22:50 42.8000 -71.0000 36° Northeast 119 137 5,100 -50 Descending KA90
Fri 12:23:50 42.8333 -70.9833 20° North 120 138 5,100  Level KA90
Fri 12:24:50 42.8500 -70.9667 36° Northeast 120 138 5,100  Level KA90
Fri 12:25:50 42.8833 -70.9500 20° North 118 136 5,100  Level KA90
Fri 12:26:50 42.9167 -70.9167 36° Northeast 118 136 5,100  Level KA90
Fri 12:27:56 42.9500 -70.9000 20° North 119 137 5,100  Level KA90
Fri 12:28:56 42.9667 -70.8667 56° Northeast 118 136 5,100  Level KA90
Fri 12:29:50 43.0000 -70.8500 20° North 118 136 5,100  Level KA90
Fri 12:30:50 43.0333 -70.8333 20° North 117 135 5,100 50 Level KA90
Fri 12:32:00 43.0688 -70.8215 14° North  Level FlightAware
Fri 12:39:00 43.2710 -70.7012 24° Northeast  Level FlightAware
Fri 12:40:00 43.2995 -70.6836 24° Northeast  Level FlightAware
Fri 12:41:00 43.3273 -70.6638 27° Northeast  Level FlightAware
Fri 12:42:00 43.3551 -70.6440 27° Northeast  Level FlightAware
Fri 12:43:00 43.3829 -70.6242 27° Northeast  Level FlightAware
Fri 12:44:00 43.4106 -70.6043 27° Northeast  Level FlightAware
Fri 12:45:00 43.4373 -70.5819 33° Northeast  Level FlightAware
Fri 12:46:00 43.4637 -70.5587 33° Northeast  Level FlightAware
Fri 12:47:00 43.4901 -70.5355 33° Northeast  Level FlightAware
Fri 12:48:00 43.5164 -70.5122 33° Northeast  Level FlightAware
Fri 12:49:00 43.5428 -70.4890 33° Northeast  Level FlightAware
Fri 12:50:00 43.5691 -70.4657 33° Northeast  Level FlightAware
Fri 12:51:00 43.5955 -70.4424 33° Northeast  Level FlightAware
Fri 12:52:00 43.6218 -70.4191 33° Northeast  Level FlightAware
Fri 12:53:00 43.6482 -70.3957 33° Northeast  Level FlightAware
Fri 12:54:00 43.6745 -70.3724 33° Northeast  Level FlightAware
Fri 12:55:00 43.7009 -70.3490 33° Northeast  Level FlightAware
Fri 12:56:00 43.7272 -70.3256 33° Northeast  Level FlightAware
Fri 12:57:00 43.7535 -70.3021 33° Northeast  Level FlightAware
Fri 12:58:00 43.7798 -70.2787 33° Northeast  Level FlightAware
Fri 12:59:00 43.8061 -70.2552 33° Northeast  Level FlightAware
Fri 13:00:00 43.8325 -70.2318 33° Northeast  Level FlightAware
Fri 13:01:00 43.8587 -70.2083 33° Northeast  Level FlightAware
Fri 13:02:00 43.8851 -70.1848 33° Northeast  Level FlightAware
Fri 13:03:00 43.9114 -70.1612 33° Northeast  Level FlightAware
Fri 13:04:00 43.9376 -70.1376 33° Northeast  Level FlightAware
Fri 13:05:00 43.9639 -70.1141 33° Northeast  Level FlightAware
Fri 13:06:00 43.9902 -70.0905 33° Northeast  Level FlightAware
Fri 13:07:00 44.0165 -70.0668 33° Northeast  Level FlightAware
Fri 13:08:00 44.0424 -70.0425 34° Northeast  Level FlightAware
Fri 13:09:00 44.0683 -70.0181 34° Northeast  Level FlightAware
Fri 13:10:00 44.0943 -69.9937 34° Northeast  Level FlightAware
Fri 13:11:00 44.1202 -69.9693 34° Northeast  Level FlightAware
Fri 13:12:00 44.1461 -69.9449 34° Northeast  Level FlightAware
Fri 13:13:00 44.1720 -69.9204 34° Northeast  Level FlightAware
Fri 13:14:00 44.1979 -69.8959 34° Northeast  Level FlightAware
Fri 13:15:00 44.2238 -69.8714 34° Northeast  Level FlightAware
Fri 13:16:00 44.2497 -69.8469 34° Northeast  Level FlightAware
Fri 13:17:00 44.2756 -69.8223 34° Northeast  Level FlightAware
Fri 13:18:00 44.3015 -69.7978 34° Northeast  Level FlightAware
Fri 13:19:00 44.3176 -69.8013 274° West  Level FlightAware
Fri 13:20:00 44.3198 -69.8450 274° West  Level FlightAware
Fri 13:21:00 44.3219 -69.8886 274° West  Level FlightAware
Fri 13:22:00 44.3241 -69.9322 274° West  Level FlightAware
Fri 13:23:00 44.3262 -69.9759 274° West  Level FlightAware
Fri 13:24:00 44.3283 -70.0195 274° West  Level FlightAware
Fri 13:25:00 44.3304 -70.0632 274° West  Level FlightAware
Fri 13:26:00 44.3325 -70.1068 274° West  Level FlightAware
Fri 13:27:00 44.3345 -70.1505 274° West  Level FlightAware
Fri 13:28:00 44.3366 -70.1941 274° West  Level FlightAware
Fri 13:29:00 44.3386 -70.2378 274° West  Level FlightAware
Fri 13:30:00 44.3406 -70.2814 274° West  Level FlightAware
Fri 13:31:00 44.3426 -70.3251 274° West  Level FlightAware
Fri 13:32:00 44.3446 -70.3688 274° West  Level FlightAware
Fri 13:33:00 44.3466 -70.4124 274° West  Level FlightAware
Fri 13:34:00 44.3485 -70.4561 274° West  Level FlightAware
Fri 13:35:00 44.3504 -70.4998 274° West  Level FlightAware
Fri 13:36:00 44.3524 -70.5435 274° West  Level FlightAware
Fri 13:37:00 44.3543 -70.5872 273° West  Level FlightAware
Fri 13:37:16 44.3778 -70.2325 273° West 118 136 8,500  Level Boston Center
Fri 13:38:00 44.3561 -70.6308 273° West  Level FlightAware
Fri 13:38:16 44.3783 -70.2703 271° West 111 128 8,500  Level Boston Center
Fri 13:39:00 44.3580 -70.6745 273° West  Level FlightAware
Fri 13:39:16 44.3811 -70.3108 275° West 111 128 8,500  Level Boston Center
Fri 13:40:00 44.3599 -70.7182 273° West  Level FlightAware
Fri 13:40:16 44.3800 -70.3575 268° West 111 128 8,500  Level Boston Center
Fri 13:41:00 44.3617 -70.7619 273° West  Level FlightAware
Fri 13:41:16 44.3806 -70.3953 271° West 111 128 8,600  Level Boston Center
Fri 13:42:00 44.3635 -70.8056 273° West  Level FlightAware
Fri 13:42:16 44.3836 -70.4417 275° West 111 128 8,500  Level Boston Center
Fri 13:43:16 44.3842 -70.4792 271° West 111 128 8,400 -50 Descending Boston Center
Fri 13:44:16 44.3850 -70.5228 272° West 108 124 8,400  Level Boston Center
Fri 13:45:16 44.3856 -70.5606 271° West 103 119 8,400  Level Boston Center
Fri 13:46:16 44.3883 -70.6042 275° West 103 119 8,400  Level Boston Center
Fri 13:47:16 44.3889 -70.6447 271° West 103 119 8,400  Level Boston Center
Fri 13:48:16 44.3939 -70.6883 279° West 103 119 8,400  Level Boston Center
Fri 13:49:16 44.3967 -70.7289 275° West 103 119 8,400  Level Boston Center
Fri 13:50:16 44.3972 -70.7753 271° West 103 119 8,400  Level Boston Center
Fri 13:51:16 44.3978 -70.8189 271° West 103 119 8,400  Level Boston Center
Fri 13:52:16 44.3986 -70.8653 271° West 108 124 8,400  Level Boston Center
Fri 13:53:16 44.4011 -70.9117 274° West 119 137 8,400  Level Boston Center
Fri 13:54:16 44.4039 -70.9553 275° West 119 137 8,400  Level Boston Center
Fri 13:55:16 44.4044 -70.9989 271° West 119 137 8,400  Level Boston Center
Fri 13:56:16 44.4050 -71.0425 271° West 119 137 8,400  Level Boston Center
Fri 13:57:16 44.4075 -71.0889 274° West 119 137 8,400  Level Boston Center
Fri 13:58:16 44.4103 -71.1325 275° West 119 137 8,400  Level Boston Center
Fri 13:59:16 44.4128 -71.1700 275° West 119 137 8,400  Level Boston Center
Fri 14:00:16 44.4131 -71.2136 271° West 119 137 8,400  Level Boston Center
Fri 14:01:16 44.4158 -71.2600 275° West 119 137 8,400  Level Boston Center
Fri 14:02:16 44.4161 -71.3067 270° West 124 143 8,400  Level Boston Center
Fri 14:03:16 44.4208 -71.3500 279° West 124 143 8,400  Level Boston Center
Fri 14:04:16 44.4233 -71.3967 274° West 119 137 8,400  Level Boston Center
Fri 14:05:16 44.4236 -71.4372 271° West 119 137 8,400  Level Boston Center
Fri 14:06:16 44.4283 -71.4836 278° West 119 137 8,400  Level Boston Center
Fri 14:07:16 44.4306 -71.5244 274° West 125 144 8,400  Level Boston Center
Fri 14:08:16 44.4331 -71.5681 275° West 120 138 8,400  Level Boston Center
Fri 14:09:16 44.4353 -71.6086 274° West 120 138 8,400  Level Boston Center
Fri 14:10:16 44.4358 -71.6550 271° West 120 138 8,400  Level Boston Center
Fri 14:11:16 44.4361 -71.6986 271° West 120 138 8,400  Level Boston Center
Fri 14:12:28 44.4342 -71.7394 266° West 120 138 8,400  Level Boston Center
Fri 14:13:28 44.4367 -71.7917 274° West 120 138 8,400  Level Boston Center
Fri 14:14:28 44.4369 -71.8353 271° West 120 138 8,400  Level Boston Center
Fri 14:15:28 44.4392 -71.8819 274° West 120 138 8,400  Level Boston Center
Fri 14:16:28 44.4394 -71.9256 271° West 120 138 8,400  Level Boston Center
Fri 14:17:40 44.4394 -71.9692 270° West 120 138 8,400  Level Boston Center
Fri 14:18:40 44.4419 -72.0214 274° West 120 138 8,400  Level Boston Center
Fri 14:19:40 44.4442 -72.0650 274° West 120 138 8,400  Level Boston Center
Fri 14:20:52 44.4464 -72.1086 274° West 120 138 8,400  Level Boston Center
Fri 14:21:52 44.4486 -72.1608 273° West 120 138 8,400  Level Boston Center
Fri 14:22:52 44.4486 -72.2075 270° West 120 138 8,400 -100 Level Boston Center
Fri 14:23:52 44.4508 -72.2511 274° West 120 138 8,200 -400 Descending Boston Center
Fri 14:24:52 44.4528 -72.2975 273° West 120 138 7,600 -600 Descending Boston Center
Fri 14:25:52 44.4531 -72.3469 270° West 125 144 7,000 -300 Descending Boston Center
Fri 14:26:52 44.4531 -72.3906 270° West 120 138 7,000 50 Level Boston Center
Fri 14:27:52 44.4531 -72.4400 270° West 120 138 7,100 50 Climbing Boston Center
Fri 14:28:52 44.4550 -72.4808 274° West 114 131 7,100  Level Boston Center
Fri 14:30:04 44.4550 -72.5217 270° West 114 131 7,100  Level Boston Center
Fri 14:31:04 44.4572 -72.5681 274° West 114 131 7,100  Level Boston Center
Fri 14:32:04 44.4569 -72.6117 270° West 114 131 7,100  Level Boston Center
Fri 14:33:04 44.4592 -72.6553 274° West 114 131 7,100  Level Boston Center
Fri 14:34:04 44.4611 -72.7019 273° West 120 138 7,100 -200 Level Boston Center
Fri 14:35:04 44.4361 -72.7164 202° Southwest 96 110 6,700 -500 Descending Boston Center
Fri 14:36:04 44.4089 -72.7336 204° Southwest 107 123 6,100 -300 Descending Boston Center
Fri 14:37:04 44.3817 -72.7508 204° Southwest 112 129 6,100 -50 Level Boston Center
Fri 14:38:04 44.3506 -72.7594 191° South 107 123 6,000  Descending Boston Center
Fri 14:39:04 44.3256 -72.7767 206° Southwest 107 123 6,100 50 Climbing Boston Center
Fri 14:40:04 44.2983 -72.7794 184° South 107 123 6,100 1,150 Level Boston Center
Fri 14:41:04 44.2669 -72.7850 187° South 107 123 8,400 50 Climbing Boston Center
Fri 14:42:04 44.2567 -72.8139 244° Southwest 90 104 6,200 -1,300 Descending Boston Center
Fri 14:43:04 44.2814 -72.8403 323° Northwest 99 114 5,800 -400 Descending Boston Center
Fri 14:45:00 44.3182 -72.9016 310° West  Level FlightAware
Fri 14:52:00 44.4514 -73.1243 310° West  Level FlightAware
Fri 14:53:00 44.4667 -73.1500 307° West  Level FlightAware
Fri 14:54:00 44.4719 -73.1533 307° West  Level Estimated
Fri 14:55:00 44.4667 -73.1500 307° West  Level FlightAware
Fri 14:56:00 44.4719 -73.1533 307° West  Level Estimated
Fri 14:57:00 44.4667 -73.1500 307° West  Level FlightAware
Fri 14:58:00 44.4719 -73.1533 307° West  Level Estimated

Login

Don't have an account? Register now (free) for customized features, flight alerts, and more!